Time;durP1;ratioP1;P1;durP2;ratioP2;P2;SDS_P1;SDS_P2;PMS_P1;PMS_P2;Temp;Humidity;BMP_temperature;BMP_pressure;BME280_temperature;BME280_humidity;BME280_pressure;Samples;Min_cycle;Max_cycle;Signal;HPM_P1;HPM_P2
2023/05/14 00:01:55;;;;;;;10.27;7.13;;;;;;;12.61;100.00;100557.25;5095357;28;20047;-88
2023/05/14 00:04:26;;;;;;;9.55;7.10;;;;;;;12.58;100.00;100549.47;5089821;28;20041;-89
2023/05/14 00:07:06;;;;;;;7.88;7.07;;;;;;;12.58;100.00;100565.41;5089283;28;20048;-88
2023/05/14 00:09:36;;;;;;;8.75;7.35;;;;;;;12.44;100.00;100538.69;5088131;28;20041;-89
2023/05/14 00:12:03;;;;;;;8.15;7.03;;;;;;;12.40;100.00;100548.63;5093251;28;20082;-89
2023/05/14 00:14:32;;;;;;;10.02;7.95;;;;;;;12.37;100.00;100561.22;5096535;28;20037;-89
2023/05/14 00:17:00;;;;;;;10.20;7.55;;;;;;;12.13;100.00;100534.97;5096864;28;20045;-87
2023/05/14 00:19:30;;;;;;;8.73;7.30;;;;;;;12.20;100.00;100554.97;5096511;28;20060;-89
2023/05/14 00:21:57;;;;;;;8.55;7.68;;;;;;;12.12;100.00;100545.69;5097279;28;20067;-89
2023/05/14 00:24:32;;;;;;;8.27;7.47;;;;;;;12.21;100.00;100548.72;5095577;28;20079;-89
2023/05/14 00:27:00;;;;;;;10.45;7.65;;;;;;;12.06;100.00;100530.06;5089802;28;20103;-89
2023/05/14 00:29:28;;;;;;;9.32;7.72;;;;;;;12.06;100.00;100519.44;5089369;28;20051;-89
2023/05/14 00:31:55;;;;;;;9.10;8.10;;;;;;;12.20;100.00;100548.78;5086415;28;20063;-90
2023/05/14 00:34:22;;;;;;;8.88;7.43;;;;;;;12.19;100.00;100537.31;5082024;28;20468;-89
2023/05/14 00:36:50;;;;;;;8.98;8.13;;;;;;;12.14;100.00;100534.03;5080012;28;20052;-89
2023/05/14 00:39:18;;;;;;;9.65;8.27;;;;;;;11.94;100.00;100520.94;5071479;28;20060;-89
2023/05/14 00:41:46;;;;;;;10.05;8.50;;;;;;;11.96;100.00;100531.47;5092449;28;20166;-89
2023/05/14 00:44:16;;;;;;;8.55;7.63;;;;;;;11.98;100.00;100533.09;5082473;28;20040;-90
2023/05/14 00:46:46;;;;;;;10.27;7.95;;;;;;;11.98;100.00;100534.88;5076756;28;20054;-89
2023/05/14 00:49:14;;;;;;;10.00;7.82;;;;;;;11.96;100.00;100524.38;5077683;28;20392;-89
2023/05/14 00:51:45;;;;;;;9.20;8.18;;;;;;;11.99;100.00;100528.63;5077775;28;20044;-89
2023/05/14 00:54:16;;;;;;;9.10;8.15;;;;;;;11.90;100.00;100528.19;5077490;28;20052;-89
2023/05/14 00:56:47;;;;;;;8.93;7.57;;;;;;;11.83;100.00;100529.41;5075907;28;20060;-88
2023/05/14 00:59:22;;;;;;;8.75;7.43;;;;;;;11.79;100.00;100529.66;5094519;28;20044;-90
2023/05/14 01:01:51;;;;;;;11.23;8.32;;;;;;;11.69;100.00;100528.34;5077939;28;20056;-89
2023/05/14 01:04:22;;;;;;;10.73;7.35;;;;;;;11.59;100.00;100525.31;5078940;28;20045;-89
2023/05/14 01:07:08;;;;;;;9.60;8.32;;;;;;;11.58;100.00;100531.53;5080002;28;20047;-89
2023/05/14 01:10:28;;;;;;;11.05;8.10;;;;;;;11.57;100.00;100524.50;5078587;28;20055;-89
2023/05/14 01:13:25;;;;;;;9.77;8.35;;;;;;;11.53;100.00;100521.13;5003239;28;20140;-88
2023/05/14 01:15:55;;;;;;;10.38;7.75;;;;;;;11.48;100.00;100528.50;5084154;28;20048;-88
2023/05/14 01:18:25;;;;;;;9.13;7.85;;;;;;;11.46;100.00;100524.19;5078529;28;20048;-88
2023/05/14 01:20:53;;;;;;;10.93;8.60;;;;;;;11.31;100.00;100493.97;5079145;28;20052;-89
2023/05/14 01:23:21;;;;;;;12.50;8.40;;;;;;;11.37;100.00;100517.50;5084004;28;20067;-88
2023/05/14 01:25:48;;;;;;;8.85;7.78;;;;;;;11.36;100.00;100523.75;5085851;28;20048;-88
2023/05/14 01:28:28;;;;;;;9.93;8.00;;;;;;;11.29;100.00;100509.09;5083638;28;20057;-87
2023/05/14 01:31:26;;;;;;;10.15;8.52;;;;;;;11.31;100.00;100516.97;5086300;28;20473;-89
2023/05/14 01:33:58;;;;;;;11.68;8.00;;;;;;;11.27;100.00;100521.56;5072642;28;20045;-87
2023/05/14 01:36:28;;;;;;;9.63;7.93;;;;;;;11.19;100.00;100518.38;5088375;28;20044;-89
2023/05/14 01:38:56;;;;;;;12.32;7.97;;;;;;;11.15;100.00;100511.53;5087897;28;20044;-87
2023/05/14 01:41:24;;;;;;;10.73;8.52;;;;;;;11.21;100.00;100522.69;5083034;28;20079;-89
2023/05/14 01:43:52;;;;;;;11.90;8.88;;;;;;;11.21;100.00;100521.84;5081372;28;20048;-87
2023/05/14 01:46:19;;;;;;;10.93;9.07;;;;;;;11.08;100.00;100523.34;5081909;28;20044;-87
2023/05/14 01:48:46;;;;;;;10.07;8.50;;;;;;;10.94;100.00;100504.59;5064380;28;20503;-87
2023/05/14 01:51:13;;;;;;;11.18;9.07;;;;;;;11.01;100.00;100511.34;5081292;28;20481;-88
2023/05/14 01:53:41;;;;;;;10.90;8.68;;;;;;;10.98;100.00;100517.63;5081963;28;20044;-87
2023/05/14 01:56:10;;;;;;;11.00;8.35;;;;;;;10.98;100.00;100520.28;5084293;28;20040;-88
2023/05/14 01:58:40;;;;;;;11.52;8.73;;;;;;;11.00;100.00;100517.56;5086996;28;20449;-89
2023/05/14 02:01:07;;;;;;;11.10;8.57;;;;;;;10.89;100.00;100507.44;5089093;28;20055;-88
2023/05/14 02:03:34;;;;;;;9.90;8.90;;;;;;;10.86;100.00;100516.38;5093394;28;20036;-88
2023/05/14 02:06:00;;;;;;;10.68;9.55;;;;;;;10.69;100.00;100489.84;5091446;28;20056;-89
2023/05/14 02:08:28;;;;;;;11.25;9.80;;;;;;;10.73;100.00;100498.47;5088607;28;20128;-88
2023/05/14 02:10:56;;;;;;;11.90;9.60;;;;;;;10.85;100.00;100513.84;5083821;28;20055;-89
2023/05/14 02:13:24;;;;;;;9.73;8.73;;;;;;;10.82;100.00;100509.53;5089796;28;20120;-87
2023/05/14 02:15:51;;;;;;;10.10;8.95;;;;;;;10.87;100.00;100507.50;5091649;28;20079;-89
2023/05/14 02:18:18;;;;;;;10.65;9.27;;;;;;;10.82;100.00;100504.25;5073545;28;20104;-89
2023/05/14 02:20:46;;;;;;;11.32;9.20;;;;;;;10.80;100.00;100500.78;5082200;28;20040;-89
2023/05/14 02:23:19;;;;;;;11.70;9.55;;;;;;;10.82;100.00;100503.38;5083254;28;20041;-89
2023/05/14 02:26:01;;;;;;;10.50;9.40;;;;;;;10.63;100.00;100481.31;5081590;28;20094;-90
2023/05/14 02:28:29;;;;;;;10.13;8.95;;;;;;;10.47;100.00;100460.81;5089092;28;20127;-90
2023/05/14 02:31:00;;;;;;;12.55;9.05;;;;;;;10.73;100.00;100496.69;5095439;28;20048;-87
2023/05/14 02:33:27;;;;;;;10.20;9.07;;;;;;;10.80;100.00;100499.94;5095556;28;20052;-88
2023/05/14 02:35:54;;;;;;;12.25;9.07;;;;;;;10.61;100.00;100470.78;5083070;28;20070;-88
2023/05/14 02:38:23;;;;;;;11.25;8.90;;;;;;;10.65;100.00;100487.41;5081170;28;20473;-88
2023/05/14 02:40:52;;;;;;;11.45;9.45;;;;;;;10.59;100.00;100493.81;5081337;28;20041;-89
2023/05/14 02:43:35;;;;;;;9.98;8.98;;;;;;;10.57;100.00;100485.09;5082742;28;20044;-89
2023/05/14 02:46:03;;;;;;;10.52;8.43;;;;;;;10.49;100.00;100487.22;5088079;28;20116;-88
2023/05/14 02:48:33;;;;;;;12.32;9.38;;;;;;;10.46;100.00;100480.28;5097314;28;20071;-89
2023/05/14 02:51:02;;;;;;;13.07;9.30;;;;;;;10.49;100.00;100492.53;5095508;28;20044;-88
2023/05/14 02:53:29;;;;;;;12.25;9.27;;;;;;;10.56;100.00;100493.94;5091262;28;20041;-89
2023/05/14 02:55:59;;;;;;;11.07;9.13;;;;;;;10.43;100.00;100468.97;5080674;28;20104;-89
2023/05/14 02:58:25;;;;;;;11.30;8.68;;;;;;;10.52;100.00;100487.09;5082777;28;20499;-89
2023/05/14 03:00:54;;;;;;;13.25;8.65;;;;;;;10.53;100.00;100491.47;5085538;28;20040;-88
2023/05/14 03:03:34;;;;;;;9.50;8.55;;;;;;;10.52;100.00;100485.31;5085079;28;20048;-87
2023/05/14 03:06:03;;;;;;;9.98;8.93;;;;;;;10.48;100.00;100483.72;5066882;28;20501;-88
2023/05/14 03:08:34;;;;;;;10.65;9.18;;;;;;;10.53;100.00;100492.34;5081608;28;20040;-88
2023/05/14 03:11:01;;;;;;;10.68;9.45;;;;;;;10.64;100.00;100494.47;5081993;28;20451;-87
2023/05/14 03:13:27;;;;;;;10.50;9.38;;;;;;;10.65;100.00;100495.34;5062720;28;20055;-88
2023/05/14 03:15:55;;;;;;;10.35;8.98;;;;;;;10.62;100.00;100491.03;5079189;28;20044;-88
2023/05/14 03:18:29;;;;;;;11.10;9.85;;;;;;;10.62;100.00;100493.69;5079793;28;20071;-87
2023/05/14 03:21:07;;;;;;;10.07;8.95;;;;;;;10.59;100.00;100480.56;5080494;28;20127;-89
2023/05/14 03:24:00;;;;;;;10.15;9.15;;;;;;;10.53;100.00;100478.22;5082373;28;20112;-87
2023/05/14 03:26:30;;;;;;;10.32;9.10;;;;;;;10.55;100.00;100482.50;5080548;28;20424;-89
2023/05/14 03:28:59;;;;;;;10.02;8.93;;;;;;;10.53;100.00;100480.88;5078934;28;20048;-89
2023/05/14 03:31:26;;;;;;;11.93;9.43;;;;;;;10.47;100.00;100483.78;5078502;28;20048;-90
2023/05/14 03:33:54;;;;;;;12.32;9.23;;;;;;;10.42;100.00;100483.13;5078724;28;20048;-90
2023/05/14 03:36:38;;;;;;;12.35;10.23;;;;;;;10.36;100.00;100484.28;5079780;28;20466;-90
2023/05/14 03:39:08;;;;;;;9.60;8.60;;;;;;;10.34;100.00;100490.56;5080461;28;20040;-91
2023/05/14 03:41:38;;;;;;;;;;;;;;;10.32;100.00;100484.47;5080214;28;20051;-88
2023/05/14 03:44:05;;;;;;;10.75;9.15;;;;;;;10.41;100.00;100481.41;5078794;28;20033;-88
2023/05/14 03:46:34;;;;;;;11.65;9.63;;;;;;;10.44;100.00;100482.13;5062987;28;20055;-89
2023/05/14 03:49:05;;;;;;;11.18;9.55;;;;;;;10.27;100.00;100463.50;5076268;28;20052;-89
2023/05/14 03:51:35;;;;;;;11.13;9.75;;;;;;;10.34;100.00;100474.69;5078195;28;20056;-89
2023/05/14 03:54:03;;;;;;;;;;;;;;;10.30;100.00;100478.38;5078920;28;20070;-90
2023/05/14 03:56:32;;;;;;;10.95;9.02;;;;;;;10.20;100.00;100467.38;5078723;28;19970;-90
2023/05/14 03:58:59;;;;;;;11.70;10.23;;;;;;;10.25;100.00;100483.00;5077401;28;20108;-91
2023/05/14 04:01:26;;;;;;;10.30;9.30;;;;;;;9.93;100.00;100434.97;5078245;28;20052;-90
2023/05/14 04:04:00;;;;;;;11.35;9.27;;;;;;;9.99;100.00;100447.97;5078929;28;20052;-90
2023/05/14 04:06:40;;;;;;;;;;;;;;;10.18;100.00;100475.38;5080975;28;20161;-90
2023/05/14 04:09:08;;;;;;;11.10;9.35;;;;;;;10.04;100.00;100459.22;5078824;28;19916;-91
2023/05/14 04:11:37;;;;;;;11.43;10.07;;;;;;;10.00;100.00;100451.47;5077975;28;20052;-90
2023/05/14 04:14:09;;;;;;;11.85;9.80;;;;;;;10.18;100.00;100491.25;5078690;28;20131;-91
2023/05/14 04:16:37;;;;;;;12.27;10.52;;;;;;;10.22;100.00;100484.03;5080099;28;20086;-91
2023/05/14 04:19:04;;;;;;;11.52;10.23;;;;;;;10.27;100.00;100489.09;5063163;28;20056;-90
2023/05/14 04:21:31;;;;;;;10.57;9.48;;;;;;;10.16;100.00;100465.75;5080856;28;20037;-91
2023/05/14 04:23:59;;;;;;;10.60;9.43;;;;;;;10.33;100.00;100488.84;5080234;28;20071;-89
2023/05/14 04:26:28;;;;;;;13.32;11.05;;;;;;;10.20;100.00;100472.66;5062753;28;20055;-91
2023/05/14 04:28:54;;;;;;;11.45;10.10;;;;;;;10.30;100.00;100494.28;5089109;28;20037;-88
2023/05/14 04:31:24;;;;;;;11.60;9.83;;;;;;;10.29;100.00;100490.75;5095977;28;20052;-89
2023/05/14 04:34:04;;;;;;;11.63;10.45;;;;;;;10.24;100.00;100484.81;5085970;28;20146;-88
2023/05/14 04:36:37;;;;;;;14.05;10.00;;;;;;;10.33;100.00;100488.84;5085901;28;20044;-88
2023/05/14 04:39:05;;;;;;;11.05;9.52;;;;;;;10.36;100.00;100502.81;5052326;28;20048;-89
2023/05/14 04:41:34;;;;;;;11.73;10.40;;;;;;;10.39;100.00;100491.22;5080944;28;20048;-89
2023/05/14 04:44:03;;;;;;;14.63;10.73;;;;;;;10.46;100.00;100500.59;5080715;28;20066;-89
2023/05/14 04:46:29;;;;;;;11.77;9.85;;;;;;;10.49;100.00;100501.34;5082731;28;20048;-89
2023/05/14 04:48:56;;;;;;;12.10;10.18;;;;;;;10.54;100.00;100498.50;5087910;28;20040;-89
2023/05/14 04:51:48;;;;;;;10.70;9.50;;;;;;;10.59;100.00;100496.47;5094995;28;20095;-90
2023/05/14 04:54:15;;;;;;;10.57;9.48;;;;;;;10.58;100.00;100492.09;5095943;28;20043;-89
2023/05/14 04:56:55;;;;;;;10.63;9.10;;;;;;;10.65;100.00;100490.91;5080826;28;20045;-88
2023/05/14 04:59:22;;;;;;;11.93;9.93;;;;;;;10.72;100.00;100496.75;5089984;28;20052;-88
2023/05/14 05:01:50;;;;;;;11.90;10.32;;;;;;;10.83;100.00;100511.25;5052444;28;20055;-89
2023/05/14 05:04:17;;;;;;;11.15;9.85;;;;;;;10.85;100.00;100501.44;5087758;28;20048;-89
2023/05/14 05:06:49;;;;;;;12.02;10.18;;;;;;;10.90;100.00;100502.06;5085810;28;20111;-88
2023/05/14 05:09:21;;;;;;;10.27;9.27;;;;;;;11.02;100.00;100513.06;5090457;28;20070;-89
2023/05/14 05:11:49;;;;;;;10.55;9.45;;;;;;;11.08;100.00;100505.66;5091782;28;20055;-90
2023/05/14 05:14:36;;;;;;;10.90;9.48;;;;;;;11.15;100.00;100501.81;5072382;28;20044;-90
2023/05/14 05:17:05;;;;;;;10.98;9.88;;;;;;;11.29;100.00;100498.47;5085801;28;20051;-89
2023/05/14 05:19:33;;;;;;;10.48;9.38;;;;;;;11.31;100.00;100491.31;5081494;28;20055;-88
2023/05/14 05:22:09;;;;;;;9.98;8.98;;;;;;;11.34;100.00;100503.53;5083329;28;20048;-89
2023/05/14 05:24:38;;;;;;;9.32;8.35;;;;;;;11.48;100.00;100501.97;5081967;28;20040;-89
2023/05/14 05:27:10;;;;;;;10.68;9.10;;;;;;;11.54;100.00;100506.09;5081603;28;20048;-90
2023/05/14 05:29:45;;;;;;;11.25;9.07;;;;;;;11.47;100.00;100492.28;5084908;28;20406;-90
2023/05/14 05:32:20;;;;;;;10.82;8.52;;;;;;;11.54;100.00;100499.00;5055885;28;20040;-90
2023/05/14 05:34:47;;;;;;;10.05;8.80;;;;;;;11.62;100.00;100489.81;5085904;28;20040;-88
2023/05/14 05:37:17;;;;;;;10.48;8.65;;;;;;;11.70;100.00;100492.94;5069788;28;20054;-90
2023/05/14 05:39:53;;;;;;;9.90;8.48;;;;;;;11.81;100.00;100490.63;5088661;28;20044;-88
2023/05/14 05:42:19;;;;;;;9.10;8.20;;;;;;;11.88;100.00;100502.66;5093883;28;20048;-89
2023/05/14 05:44:46;;;;;;;11.82;7.47;;;;;;;11.74;100.00;100474.13;5086631;28;20045;-87
2023/05/14 05:47:14;;;;;;;8.30;7.35;;;;;;;12.03;100.00;100507.19;5082917;28;20350;-88
2023/05/14 05:49:42;;;;;;;9.30;8.40;;;;;;;11.99;100.00;100494.13;5080867;28;20063;-87
2023/05/14 05:52:12;;;;;;;9.60;7.73;;;;;;;12.15;100.00;100503.88;5081732;28;20072;-88
2023/05/14 05:54:52;;;;;;;10.27;8.20;;;;;;;12.27;100.00;100492.66;5082945;28;20064;-87
2023/05/14 05:57:27;;;;;;;7.70;7.00;;;;;;;12.53;100.00;100501.03;5083059;28;20056;-88
2023/05/14 05:59:56;;;;;;;8.13;7.32;;;;;;;12.85;100.00;100497.50;5085373;28;20040;-88
2023/05/14 06:02:31;;;;;;;8.20;6.93;;;;;;;13.26;100.00;100502.34;5084608;28;20045;-86
2023/05/14 06:04:59;;;;;;;10.77;7.15;;;;;;;13.61;100.00;100489.69;5065658;28;20044;-89
2023/05/14 06:07:29;;;;;;;8.18;6.53;;;;;;;13.94;100.00;100490.38;5082894;28;20040;-88
2023/05/14 06:09:58;;;;;;;11.05;6.55;;;;;;;13.98;100.00;100480.41;5081704;28;20083;-88
2023/05/14 06:12:27;;;;;;;7.13;6.43;;;;;;;13.98;100.00;100494.59;5066873;28;20048;-88
2023/05/14 06:14:56;;;;;;;6.93;6.20;;;;;;;13.92;100.00;100510.91;5082955;28;20132;-90
2023/05/14 06:17:24;;;;;;;7.38;6.13;;;;;;;13.88;100.00;100504.03;5086868;28;20049;-87
2023/05/14 06:19:52;;;;;;;8.85;6.53;;;;;;;14.01;100.00;100498.84;5091580;28;20045;-87
2023/05/14 06:22:21;;;;;;;6.68;6.03;;;;;;;14.17;100.00;100504.09;5092602;28;20044;-87
2023/05/14 06:24:51;;;;;;;7.78;6.35;;;;;;;14.31;100.00;100493.50;5082387;28;20044;-87
2023/05/14 06:27:24;;;;;;;7.03;6.15;;;;;;;14.59;100.00;100484.69;5082914;28;20108;-87
2023/05/14 06:29:51;;;;;;;7.28;6.40;;;;;;;15.06;100.00;100497.72;5085905;28;20045;-88
2023/05/14 06:32:20;;;;;;;7.32;5.90;;;;;;;15.50;100.00;100486.81;5086638;28;20060;-89
2023/05/14 06:34:49;;;;;;;6.70;5.97;;;;;;;15.92;99.54;100499.13;5084920;28;20048;-88
2023/05/14 06:37:21;;;;;;;7.30;5.70;;;;;;;16.25;93.46;100487.97;5084622;28;20155;-88
2023/05/14 06:39:53;;;;;;;6.57;5.47;;;;;;;16.56;91.12;100488.50;5080658;28;20468;-87
2023/05/14 06:42:23;;;;;;;5.63;5.03;;;;;;;16.89;86.57;100494.19;5078751;28;20047;-87
2023/05/14 06:44:51;;;;;;;8.55;5.60;;;;;;;17.17;88.53;100496.56;5078809;28;20239;-86
2023/05/14 06:47:17;;;;;;;5.60;4.85;;;;;;;17.58;78.95;100502.53;5079760;28;20384;-87
2023/05/14 06:49:45;;;;;;;5.53;4.80;;;;;;;17.76;71.08;100490.50;5078739;28;20078;-88
2023/05/14 06:52:11;;;;;;;6.75;4.47;;;;;;;17.89;76.28;100493.94;5080293;28;20063;-87
2023/05/14 06:54:39;;;;;;;4.93;4.20;;;;;;;18.05;77.90;100499.84;5079710;28;20040;-86
2023/05/14 06:57:11;;;;;;;6.88;5.10;;;;;;;18.21;76.49;100480.78;5080244;28;20067;-86
2023/05/14 06:59:51;;;;;;;7.20;4.95;;;;;;;18.34;74.69;100486.88;5084085;28;20037;-85
2023/05/14 07:02:19;;;;;;;5.13;4.63;;;;;;;18.28;75.03;100473.94;5095513;28;20108;-86
2023/05/14 07:04:48;;;;;;;5.10;4.55;;;;;;;18.33;68.02;100489.69;5084764;28;20107;-86
2023/05/14 07:07:29;;;;;;;4.93;4.35;;;;;;;18.04;69.34;100481.22;5079752;28;20541;-86
2023/05/14 07:09:56;;;;;;;6.65;4.53;;;;;;;18.21;73.98;100486.13;5078503;28;20055;-86
2023/05/14 07:12:26;;;;;;;5.00;4.55;;;;;;;18.52;70.03;100477.41;5078522;28;20126;-86
2023/05/14 07:14:57;;;;;;;5.18;4.68;;;;;;;18.76;66.83;100484.50;5078576;28;20067;-86
2023/05/14 07:17:27;;;;;;;5.30;4.80;;;;;;;18.71;67.65;100484.88;5079392;28;20381;-87
2023/05/14 07:20:01;;;;;;;4.85;3.90;;;;;;;18.56;63.99;100462.78;5079283;28;20075;-86
2023/05/14 07:22:29;;;;;;;4.85;4.18;;;;;;;18.51;68.49;100480.19;5088956;28;20056;-87
2023/05/14 07:24:58;;;;;;;5.30;4.30;;;;;;;18.71;71.68;100471.47;5094988;28;20068;-85
2023/05/14 07:27:27;;;;;;;4.80;4.40;;;;;;;18.95;66.10;100473.16;5077103;28;20066;-85
2023/05/14 07:30:00;;;;;;;4.65;4.20;;;;;;;18.74;63.79;100459.63;5094636;28;20045;-85
2023/05/14 07:32:28;;;;;;;6.35;4.60;;;;;;;18.63;64.92;100470.38;5095526;28;20072;-85
2023/05/14 07:34:56;;;;;;;5.80;4.75;;;;;;;18.50;65.39;100467.78;5079034;28;20088;-86
2023/05/14 07:37:25;;;;;;;5.15;4.65;;;;;;;18.41;65.61;100460.47;5095793;28;20064;-86
2023/05/14 07:39:55;;;;;;;5.43;4.57;;;;;;;18.39;65.64;100449.84;5090024;28;20048;-86
2023/05/14 07:42:21;;;;;;;4.55;4.15;;;;;;;18.55;68.11;100457.53;5090650;28;20120;-87
2023/05/14 07:45:02;;;;;;;4.85;4.35;;;;;;;18.74;66.56;100451.56;5092028;28;20052;-84
2023/05/14 07:47:29;;;;;;;4.97;4.47;;;;;;;18.98;67.09;100443.41;5092450;28;20055;-86
2023/05/14 07:49:58;;;;;;;3.88;3.58;;;;;;;18.96;64.76;100437.28;5093647;28;20048;-87
2023/05/14 07:52:25;;;;;;;4.68;4.22;;;;;;;19.27;62.33;100458.81;5086183;28;20048;-87
2023/05/14 07:54:53;;;;;;;4.55;4.15;;;;;;;19.32;62.57;100449.56;5079888;28;20047;-86
2023/05/14 07:57:20;;;;;;;5.63;4.03;;;;;;;19.23;63.60;100446.63;5080650;28;20050;-87
2023/05/14 07:59:55;;;;;;;4.30;3.90;;;;;;;19.20;64.25;100446.88;5080201;28;20045;-88
2023/05/14 08:02:23;;;;;;;5.45;4.65;;;;;;;19.53;59.74;100448.63;5066559;28;20041;-87
2023/05/14 08:04:52;;;;;;;5.03;4.60;;;;;;;19.61;61.29;100446.19;5080930;28;20044;-86
2023/05/14 08:07:33;;;;;;;5.22;4.10;;;;;;;19.77;60.21;100445.75;5083255;28;20044;-87
2023/05/14 08:10:01;;;;;;;4.88;4.40;;;;;;;19.88;59.47;100440.31;5083075;28;20045;-86
2023/05/14 08:12:55;;;;;;;4.25;3.85;;;;;;;19.76;60.75;100424.38;5083880;28;20070;-86
2023/05/14 08:15:26;;;;;;;5.25;4.40;;;;;;;20.21;56.79;100425.81;5048205;28;20045;-87
2023/05/14 08:18:08;;;;;;;5.55;4.82;;;;;;;20.34;56.96;100433.66;5080777;28;20064;-86
2023/05/14 08:20:35;;;;;;;5.18;4.68;;;;;;;19.92;58.06;100443.59;5082365;28;20106;-87
2023/05/14 08:23:03;;;;;;;5.80;4.70;;;;;;;19.81;60.30;100435.59;5068004;28;20040;-87
2023/05/14 08:25:33;;;;;;;4.57;4.17;;;;;;;19.50;60.33;100437.31;5063089;28;20200;-86
2023/05/14 08:28:14;;;;;;;6.47;4.30;;;;;;;19.29;61.89;100429.16;5060940;28;20468;-87
2023/05/14 08:30:45;;;;;;;4.22;3.83;;;;;;;19.02;64.76;100432.28;5061977;28;20045;-88
2023/05/14 08:33:26;;;;;;;;;;;;;;;18.91;65.30;100429.59;5066570;28;20045;-87
2023/05/14 08:35:59;;;;;;;6.65;4.32;;;;;;;18.67;62.46;100399.41;5070019;28;19966;-87
2023/05/14 08:38:27;;;;;;;4.47;3.97;;;;;;;18.57;63.54;100426.09;5065898;28;20045;-88
2023/05/14 08:40:57;;;;;;;4.20;3.80;;;;;;;18.30;65.11;100418.38;5071188;28;20109;-86
2023/05/14 08:43:29;;;;;;;4.18;3.78;;;;;;;17.96;67.78;100396.03;5074954;28;20048;-86
2023/05/14 08:46:00;;;;;;;4.10;3.70;;;;;;;17.60;66.35;100372.94;5070075;28;20045;-87
2023/05/14 08:48:33;;;;;;;4.68;4.28;;;;;;;17.62;69.12;100395.09;5074298;28;20067;-87
2023/05/14 08:51:02;;;;;;;5.03;3.90;;;;;;;17.61;68.60;100411.28;5076804;28;20041;-86
2023/05/14 08:53:33;;;;;;;5.50;3.95;;;;;;;17.13;68.46;100364.00;5077810;28;20033;-87
2023/05/14 08:56:03;;;;;;;3.83;3.50;;;;;;;17.26;71.15;100396.03;5076489;28;20049;-87
2023/05/14 08:58:32;;;;;;;4.78;4.18;;;;;;;17.44;73.58;100415.22;5077045;28;20057;-87
2023/05/14 09:01:02;;;;;;;4.88;4.07;;;;;;;17.61;76.27;100411.28;5074203;28;20065;-86
2023/05/14 09:03:33;;;;;;;4.65;4.25;;;;;;;17.62;73.19;100408.50;5077402;28;20113;-86
2023/05/14 09:06:04;;;;;;;5.15;4.20;;;;;;;17.38;75.86;100395.13;5076875;28;20044;-86
2023/05/14 09:08:39;;;;;;;5.03;4.50;;;;;;;17.58;76.24;100395.44;5027566;28;20063;-86
2023/05/14 09:11:08;;;;;;;4.43;4.03;;;;;;;17.54;74.30;100386.78;5075684;28;20052;-86
2023/05/14 09:13:56;;;;;;;4.75;3.83;;;;;;;17.78;72.48;100378.75;5072732;28;20070;-84
2023/05/14 09:16:25;;;;;;;5.38;4.25;;;;;;;17.62;70.00;100357.59;5076661;28;20075;-87
2023/05/14 09:18:58;;;;;;;4.95;4.45;;;;;;;17.57;70.92;100374.97;5076268;28;20060;-86
2023/05/14 09:21:27;;;;;;;4.38;3.70;;;;;;;17.61;72.50;100387.19;5076339;28;20048;-86
2023/05/14 09:23:59;;;;;;;4.35;3.95;;;;;;;17.51;72.15;100374.47;5060402;28;20041;-88
2023/05/14 09:26:31;;;;;;;5.93;4.05;;;;;;;17.65;73.58;100377.94;5072798;28;20045;-87
2023/05/14 09:29:27;;;;;;;4.60;4.07;;;;;;;17.92;68.20;100388.38;5070891;28;20037;-87
2023/05/14 09:32:06;;;;;;;6.50;3.90;;;;;;;17.84;67.24;100346.09;5076654;28;20057;-87
2023/05/14 09:34:42;;;;;;;3.72;3.42;;;;;;;18.24;66.39;100386.72;5075619;28;20045;-88
2023/05/14 09:37:11;;;;;;;4.60;3.90;;;;;;;17.92;63.92;100313.38;5076765;28;20064;-87
2023/05/14 09:39:50;;;;;;;7.50;4.13;;;;;;;18.35;63.37;100361.72;5076314;28;20037;-87
2023/05/14 09:42:21;;;;;;;4.15;3.75;;;;;;;18.52;63.23;100390.75;5073428;28;20099;-87
2023/05/14 09:44:48;;;;;;;4.15;3.30;;;;;;;18.42;60.39;100371.81;5075448;28;20060;-86
2023/05/14 09:47:22;;;;;;;6.03;3.10;;;;;;;18.29;59.55;100325.53;5076307;28;20037;-87
2023/05/14 09:50:05;;;;;;;2.70;2.50;;;;;;;18.78;57.87;100385.97;5091323;28;20037;-88
2023/05/14 09:52:38;;;;;;;2.88;2.53;;;;;;;18.86;56.14;100380.84;5076368;28;20033;-87
2023/05/14 09:55:10;;;;;;;4.28;2.47;;;;;;;18.99;55.84;100384.25;5075601;28;20056;-87
2023/05/14 09:57:37;;;;;;;2.67;2.47;;;;;;;19.08;53.85;100377.25;5075521;28;20112;-87
2023/05/14 10:00:09;;;;;;;2.38;2.17;;;;;;;18.63;53.21;100339.78;5059204;28;20075;-87
2023/05/14 10:02:39;;;;;;;2.90;2.58;;;;;;;18.74;54.26;100384.50;5087777;28;20049;-85
2023/05/14 10:05:08;;;;;;;;;;;;;;;18.84;55.07;100393.53;5070510;28;20048;-87
2023/05/14 10:07:45;;;;;;;2.80;2.47;;;;;;;18.87;54.61;100377.19;5063252;28;19924;-87
2023/05/14 10:10:15;;;;;;;2.63;2.42;;;;;;;18.90;53.75;100374.25;5063464;28;20049;-86
2023/05/14 10:12:57;;;;;;;2.85;2.50;;;;;;;19.11;53.69;100383.22;5065095;28;20057;-86
2023/05/14 10:15:32;;;;;;;2.65;2.40;;;;;;;19.19;52.18;100386.13;5066131;28;20052;-86
2023/05/14 10:18:05;;;;;;;2.40;2.20;;;;;;;19.04;52.17;100381.19;5069606;28;20531;-84
2023/05/14 10:20:36;;;;;;;3.08;2.08;;;;;;;19.06;51.88;100363.94;5075253;28;20044;-85
2023/05/14 10:23:07;;;;;;;3.00;2.00;;;;;;;19.10;52.34;100380.66;5077159;28;20061;-86
2023/05/14 10:25:35;;;;;;;3.08;2.40;;;;;;;19.12;51.62;100368.81;5068150;28;20052;-86
2023/05/14 10:28:04;;;;;;;2.70;2.50;;;;;;;19.30;50.40;100363.75;5068288;28;20132;-86
2023/05/14 10:30:34;;;;;;;1.92;1.83;;;;;;;19.47;51.63;100368.56;5050132;28;20087;-86
2023/05/14 10:33:07;;;;;;;2.90;2.30;;;;;;;19.39;50.09;100354.91;5070113;28;20112;-86
2023/05/14 10:35:55;;;;;;;2.25;2.05;;;;;;;19.43;50.67;100374.31;5067288;28;20135;-86
2023/05/14 10:38:32;;;;;;;2.47;2.28;;;;;;;19.40;50.61;100383.47;5068265;28;20123;-88
2023/05/14 10:41:16;;;;;;;2.53;2.33;;;;;;;19.28;50.42;100384.50;5062794;28;20108;-86
2023/05/14 10:43:43;;;;;;;2.67;2.47;;;;;;;19.08;51.34;100366.50;5058999;28;20425;-86
2023/05/14 10:46:11;;;;;;;3.30;2.28;;;;;;;18.91;52.32;100354.47;5062062;28;20095;-86
2023/05/14 10:48:43;;;;;;;2.80;2.60;;;;;;;19.03;51.33;100361.53;5060583;28;20422;-86
2023/05/14 10:51:16;;;;;;;2.70;2.50;;;;;;;19.13;52.66;100373.22;5059508;28;20045;-85
2023/05/14 10:53:43;;;;;;;2.17;2.07;;;;;;;19.04;52.02;100362.41;5043566;28;20478;-87
2023/05/14 10:56:12;;;;;;;3.03;2.72;;;;;;;19.21;51.91;100357.31;5061287;28;20053;-87
2023/05/14 10:58:58;;;;;;;2.88;2.67;;;;;;;19.68;52.15;100360.53;5061047;28;20049;-86
2023/05/14 11:01:26;;;;;;;5.47;2.65;;;;;;;19.92;53.37;100357.59;5062415;28;20123;-85
2023/05/14 11:03:57;;;;;;;3.58;2.70;;;;;;;19.93;54.46;100352.09;5065867;28;20113;-86
2023/05/14 11:06:25;;;;;;;3.70;2.90;;;;;;;19.73;52.87;100333.28;5082825;28;20111;-86
2023/05/14 11:08:53;;;;;;;3.35;2.65;;;;;;;19.62;55.00;100350.31;5080407;28;20055;-86
2023/05/14 11:11:24;;;;;;;2.90;2.70;;;;;;;19.77;54.29;100340.09;5079636;28;20496;-86
2023/05/14 11:14:24;;;;;;;3.38;3.08;;;;;;;19.92;53.14;100347.69;5117630;27;20711;-86
2023/05/14 11:16:50;;;;;;;4.10;2.85;;;;;;;19.98;54.25;100337.41;5129867;28;20051;-85
2023/05/14 11:19:20;;;;;;;5.15;2.72;;;;;;;19.95;53.38;100335.81;5125677;28;20044;-86
2023/05/14 11:21:47;;;;;;;3.17;2.67;;;;;;;19.92;51.30;100333.41;5116201;28;20428;-86
2023/05/14 11:24:28;;;;;;;3.58;2.58;;;;;;;20.10;51.91;100339.00;5114785;28;20043;-87
2023/05/14 11:26:55;;;;;;;3.45;2.70;;;;;;;20.24;51.54;100327.91;5115959;28;20039;-87
2023/05/14 11:29:27;;;;;;;3.15;2.75;;;;;;;20.36;50.66;100323.25;5117274;28;20048;-86
2023/05/14 11:31:57;;;;;;;2.70;2.50;;;;;;;20.38;51.14;100315.94;5116137;28;20046;-86
2023/05/14 11:34:25;;;;;;;2.85;2.65;;;;;;;20.26;52.13;100332.16;5117014;28;20043;-88
2023/05/14 11:36:51;;;;;;;3.85;2.65;;;;;;;20.20;51.86;100307.63;5114775;28;20067;-87
2023/05/14 11:39:18;;;;;;;2.72;2.53;;;;;;;20.14;51.49;100297.44;5114283;28;20036;-87